DW3868 Weather Reports


Display with metric or nautical units.
time (UTC)temp
F
wind
direction
speed
MPH
gust
MPH
rain 1hr
in
rain 24hr
in
rain mn
in
humidity
%
barometer
mb
20200226230008 50 355 5.0 11.0 0.00 0.00 0.00 71 1005.0
20200226224504 51 186 5.0 8.0 0.00 0.00 0.00 75 1004.3
20200226223022 51 169 5.0 11.0 0.00 0.00 0.00 74 1004.3
20200226221504 51 202 4.0 11.0 0.00 0.00 0.00 75 1004.2
20200226220025 51 149 4.0 8.0 0.00 0.00 0.00 75 1004.4
20200226214540 52 152 4.0 13.0 0.00 0.00 0.00 75 1004.6
20200226213013 52 168 5.0 11.0 0.00 0.00 0.00 75 1004.3
20200226211501 52 159 8.0 12.0 0.00 0.00 0.00 74 1004.1
20200226210151 52 151 6.0 11.0 0.00 0.00 0.00 72 1004.4
20200226210003 52 157 5.0 11.0 0.00 0.00 0.00 73 1004.4
20200226204606 53 119 4.0 11.0 0.00 0.00 0.00 74 1004.8
20200226203248 53 151 7.0 12.0 0.00 0.00 0.00 74 1005.6
20200226201734 53 201 6.0 13.0 0.00 0.00 0.00 71 1006.0
20200226200202 53 148 8.0 17.0 0.00 0.00 0.00 70 1006.1
20200226194602 54 148 8.0 15.0 0.00 0.00 0.00 70 1006.5
20200226193412 54 173 9.0 17.0 0.00 0.00 0.00 70 1007.0
20200226191654 54 145 8.0 14.0 0.00 0.00 0.00 68 1007.0
20200226190145 55 138 8.0 14.0 0.00 0.00 0.00 67 1007.2
20200226184640 55 199 6.0 13.0 0.00 0.00 0.00 66 1007.5
20200226183200 55 179 6.0 12.0 0.00 0.00 0.00 67 1007.6
20200226181650 55 153 5.0 15.0 0.00 0.00 0.00 67 1007.8
20200226180128 55 139 7.0 13.0 0.00 0.00 0.00 67 1007.9
20200226174603 55 111 4.0 12.0 0.00 0.00 0.00 68 1008.4
20200226173102 54 150 10.0 17.0 0.00 0.00 0.00 68 1008.4
20200226171618 56 148 5.0 12.0 0.00 0.00 0.00 66 1008.9
20200226170154 56 163 7.0 18.0 0.00 0.00 0.00 66 1009.2
20200226164539 56 155 8.0 16.0 0.00 0.00 0.00 65 1009.7
20200226163032 56 156 10.0 17.0 0.00 0.00 0.00 64 1009.9
20200226161646 57 144 0.0 5.0 0.00 0.00 0.00 63 1010.0
20200226160052 56 167 5.0 9.0 0.00 0.00 0.00 68 1010.0
20200226154549 55 146 6.0 10.0 0.00 0.00 0.00 68 1010.1
20200226153046 54 117 0.0 9.0 0.00 0.00 0.00 75 1010.2
20200226151557 53 127 0.0 6.0 0.00 0.00 0.00 79 1010.6
20200226150012 50 95 0.0 3.0 0.00 0.00 0.00 84 1010.8
20200226144515 48 5 0.0 3.0 0.00 0.00 0.00 87 1011.1
20200226143021 47 333 1.0 4.0 0.00 0.00 0.00 87 1011.2
20200226141510 46 272 0.0 2.0 0.00 0.00 0.00 90 1011.4
20200226140009 45 5 0.0 0.0 0.00 0.00 0.00 94 1011.8
20200226134513 45 26 0.0 0.0 0.00 0.00 0.00 98 1011.7
20200226133016 44 105 0.0 0.0 0.00 0.00 0.00 97 1011.6
20200226131536 43 105 0.0 0.0 0.00 0.00 0.00 97 1011.8
20200226130026 42 105 0.0 0.0 0.00 0.00 0.00 97 1011.7
20200226124505 42 105 0.0 0.0 0.00 0.00 0.00 97 1011.9
20200226123021 41 105 0.0 0.0 0.00 0.00 0.00 97 1011.8
20200226121503 41 102 0.0 0.0 0.00 0.00 0.00 97 1011.5
20200226120008 41 102 0.0 0.0 0.00 0.00 0.00 96 1011.8
20200226114635 41 102 0.0 0.0 0.00 0.00 0.00 96 1011.6
20200226113112 41 338 0.0 0.0 0.00 0.00 0.00 96 1011.5
20200226111622 41 338 0.0 0.0 0.00 0.00 0.00 96 1011.4
20200226110247 41 338 0.0 0.0 0.00 0.00 0.00 94 1011.4
20200226104652 42 338 0.0 0.0 0.00 0.01 0.00 93 1011.5
20200226103120 44 338 0.0 1.0 0.00 0.01 0.00 92 1011.4
20200226101618 44 298 0.0 0.0 0.00 0.01 0.00 92 1011.2
20200226100102 44 298 0.0 0.0 0.00 0.01 0.00 92 1011.1
20200226094644 44 298 0.0 0.0 0.00 0.02 0.00 92 1011.1
20200226093225 44 281 0.0 0.0 0.00 0.02 0.00 92 1010.9
20200226091612 44 321 0.0 0.0 0.00 0.02 0.00 91 1010.6
20200226090143 45 321 0.0 2.0 0.00 0.05 0.00 90 1010.6
20200226084558 45 296 0.0 3.0 0.00 0.05 0.00 91 1010.9
20200226083130 45 298 0.0 3.0 0.00 0.05 0.00 92 1011.1
20200226081652 45 329 0.0 1.0 0.00 0.05 0.00 92 1011.1
20200226080125 45 327 0.0 2.0 0.00 0.10 0.00 93 1011.1
20200226074552 45 331 0.0 2.0 0.00 0.10 0.00 93 1011.0
20200226073119 45 294 0.0 0.0 0.00 0.10 0.00 93 1011.2
20200226071604 45 315 0.0 0.0 0.00 0.10 0.00 94 1011.2
20200226070057 45 329 0.0 0.0 0.00 0.15 0.00 95 1011.3
20200226064540 45 337 0.0 0.0 0.00 0.15 0.00 96 1011.3
20200226063101 43 337 0.0 0.0 0.00 0.15 0.00 94 1011.3
20200226061652 44 337 0.0 0.0 0.00 0.15 0.00 91 1011.3
20200226060114 45 337 0.0 0.0 0.00 0.20 0.00 88 1011.4
20200226054555 48 285 0.0 2.0 0.00 0.20 0.00 86 1011.3
20200226053044 48 205 0.0 2.0 0.00 0.20 0.00 86 1011.0
20200226051527 48 194 0.0 1.0 0.00 0.20 0.00 87 1011.1
20200226050041 48 220 0.0 0.0 0.00 0.22 0.20 86 1011.0
20200226044548 48 223 0.0 2.0 0.00 0.22 0.20 86 1011.0
20200226043031 48 310 0.0 0.0 0.00 0.22 0.20 87 1011.2
20200226041637 48 255 0.0 0.0 0.00 0.22 0.20 89 1011.5
20200226040031 47 305 0.0 1.0 0.00 0.22 0.20 92 1011.7
20200226034524 47 286 0.0 1.0 0.00 0.22 0.20 94 1011.7
20200226033107 46 298 0.0 0.0 0.00 0.22 0.20 96 1011.7
20200226031529 45 247 0.0 0.0 0.00 0.22 0.20 95 1011.7
20200226030055 46 192 0.0 1.0 0.00 0.23 0.20 96 1011.7
20200226024530 46 184 0.0 3.0 0.00 0.23 0.20 96 1011.7
20200226023025 46 180 1.0 4.0 0.00 0.23 0.20 96 1011.8
20200226021540 46 150 1.0 4.0 0.00 0.23 0.20 95 1011.8
20200226020035 47 178 0.0 3.0 0.00 0.25 0.20 95 1011.5
20200226014525 46 184 1.0 2.0 0.00 0.25 0.20 95 1011.4
20200226013029 47 178 0.0 0.0 0.00 0.25 0.20 94 1011.1
20200226011529 47 179 0.0 0.0 0.00 0.25 0.20 94 1011.4
20200226010036 47 207 0.0 0.0 0.00 0.28 0.20 94 1011.5
20200226004553 47 188 0.0 0.0 0.00 0.28 0.20 93 1011.2
20200226003030 47 188 0.0 0.0 0.00 0.28 0.20 92 1011.0
20200226001556 48 191 1.0 5.0 0.00 0.28 0.20 93 1010.6
20200226000035 47 155 0.0 3.0 0.00 0.33 0.20 92 1010.4
20200225234512 48 164 0.0 1.0 0.00 0.33 0.20 90 1010.3
20200225233028 49 155 1.0 3.0 0.00 0.33 0.20 90 1010.2
20200225231516 49 169 0.0 3.0 0.00 0.33 0.20 89 1010.2